Time;durP1;ratioP1;P1;durP2;ratioP2;P2;SDS_P1;SDS_P2;PMS_P1;PMS_P2;Temp;Humidity;BMP_temperature;BMP_pressure;BME280_temperature;BME280_humidity;BME280_pressure;Samples;Min_cycle;Max_cycle;Signal;HPM_P1;HPM_P2
2023/01/23 00:00:57;;;;;;;5.53;2.63;;;3.00;99.90;;;;;;4165349;28;20053;-83
2023/01/23 00:02:57;;;;;;;6.07;3.65;;;1.50;99.90;;;;;;4165393;28;20511;-82
2023/01/23 00:04:58;;;;;;;10.25;3.80;;;3.10;99.90;;;;;;4166022;28;20049;-82
2023/01/23 00:06:59;;;;;;;13.27;4.00;;;2.90;99.90;;;;;;4165330;28;20053;-82
2023/01/23 00:09:01;;;;;;;7.93;3.10;;;3.20;99.90;;;;;;4149137;28;20112;-83
2023/01/23 00:11:10;;;;;;;11.38;3.00;;;3.10;99.90;;;;;;4164891;28;20045;-83
2023/01/23 00:13:11;;;;;;;6.70;3.15;;;2.90;99.90;;;;;;4166379;28;20041;-83
2023/01/23 00:15:12;;;;;;;6.90;3.03;;;4.30;99.90;;;;;;4165291;28;20049;-83
2023/01/23 00:17:13;;;;;;;9.43;4.30;;;3.00;99.90;;;;;;4150994;28;20046;-83
2023/01/23 00:19:13;;;;;;;5.88;2.78;;;3.10;99.90;;;;;;4183676;28;20060;-83
2023/01/23 00:21:16;;;;;;;8.63;3.90;;;3.00;99.90;;;;;;4182165;28;20055;-83
2023/01/23 00:23:17;;;;;;;8.73;3.22;;;2.00;99.90;;;;;;4181502;28;20460;-83
2023/01/23 00:25:19;;;;;;;9.30;3.00;;;3.30;99.90;;;;;;4164976;28;20045;-83
2023/01/23 00:27:21;;;;;;;8.40;3.28;;;3.20;99.90;;;;;;4165275;28;20050;-83
2023/01/23 00:29:22;;;;;;;9.88;3.20;;;3.90;99.90;;;;;;4182785;28;20049;-83
2023/01/23 00:31:29;;;;;;;9.23;3.17;;;3.00;99.90;;;;;;4181553;28;20052;-83
2023/01/23 00:33:30;;;;;;;9.23;2.90;;;3.00;99.90;;;;;;4183049;28;20485;-82
2023/01/23 00:35:34;;;;;;;8.88;3.45;;;2.90;99.90;;;;;;4181646;28;20041;-82
2023/01/23 00:37:35;;;;;;;7.60;3.20;;;3.30;99.90;;;;;;4180787;28;20033;-82
2023/01/23 00:39:37;;;;;;;6.45;2.80;;;2.90;99.90;;;;;;4182439;28;20126;-82
2023/01/23 00:41:40;;;;;;;6.45;2.92;;;2.80;99.90;;;;;;4182442;28;20045;-82
2023/01/23 00:43:41;;;;;;;10.40;3.28;;;3.40;99.90;;;;;;4181496;28;20041;-83
2023/01/23 00:45:42;;;;;;;6.75;3.55;;;4.70;99.90;;;;;;4182039;28;20048;-83
2023/01/23 00:47:43;;;;;;;10.13;3.75;;;3.30;99.90;;;;;;4182664;28;20501;-83
2023/01/23 00:49:44;;;;;;;9.23;3.22;;;3.00;99.90;;;;;;4182539;28;20045;-83
2023/01/23 00:51:45;;;;;;;5.85;2.88;;;2.90;99.90;;;;;;4183114;28;20037;-83
2023/01/23 00:53:46;;;;;;;8.23;3.10;;;3.50;99.90;;;;;;4182714;28;20071;-83
2023/01/23 00:55:47;;;;;;;9.68;3.10;;;2.90;99.90;;;;;;4182377;28;20092;-83
2023/01/23 00:57:48;;;;;;;5.95;2.80;;;3.50;99.90;;;;;;4181405;28;20052;-83
2023/01/23 00:59:49;;;;;;;6.65;3.42;;;3.00;99.90;;;;;;4181383;28;20083;-83
2023/01/23 01:01:51;;;;;;;7.90;3.85;;;3.00;99.90;;;;;;4181842;28;20432;-83
2023/01/23 01:03:53;;;;;;;8.02;3.35;;;4.50;99.90;;;;;;4182923;28;20458;-83
2023/01/23 01:05:55;;;;;;;7.63;3.03;;;4.40;99.90;;;;;;4164834;28;20046;-83
2023/01/23 01:07:55;;;;;;;8.57;2.78;;;2.70;99.90;;;;;;4182341;28;20045;-82
2023/01/23 01:09:57;;;;;;;8.95;3.03;;;3.00;99.90;;;;;;4181159;28;20052;-82
2023/01/23 01:11:58;;;;;;;7.47;3.05;;;1.90;99.90;;;;;;4181948;28;20437;-83
2023/01/23 01:14:00;;;;;;;10.35;3.63;;;3.30;99.90;;;;;;4182823;28;20098;-82
2023/01/23 01:16:01;;;;;;;8.52;3.55;;;3.20;99.90;;;;;;4182588;28;20067;-83
2023/01/23 01:18:02;;;;;;;6.55;3.05;;;2.70;99.90;;;;;;4197951;28;20091;-82
2023/01/23 01:20:05;;;;;;;8.45;2.80;;;2.90;99.90;;;;;;4182682;28;20138;-82
2023/01/23 01:22:05;;;;;;;7.50;2.85;;;2.90;99.90;;;;;;4183562;28;20049;-82
2023/01/23 01:24:06;;;;;;;7.32;2.85;;;4.20;99.90;;;;;;4182846;28;20049;-83
2023/01/23 01:26:08;;;;;;;8.00;2.40;;;2.90;99.90;;;;;;4174262;28;20051;-82
2023/01/23 01:28:09;;;;;;;7.82;2.60;;;3.40;99.90;;;;;;4181412;28;20132;-82
2023/01/23 01:30:11;;;;;;;5.82;2.15;;;3.40;99.90;;;;;;4165774;28;20053;-82
2023/01/23 01:32:13;;;;;;;10.40;2.30;;;2.80;99.90;;;;;;4165524;28;20473;-83
2023/01/23 01:34:15;;;;;;;3.83;2.25;;;2.90;99.90;;;;;;4166347;28;20072;-83
2023/01/23 01:36:19;;;;;;;7.75;2.70;;;3.10;99.90;;;;;;4166531;28;20045;-83
2023/01/23 01:38:22;;;;;;;10.23;3.83;;;4.00;99.90;;;;;;4165194;28;20478;-83
2023/01/23 01:40:26;;;;;;;8.13;2.70;;;2.80;99.90;;;;;;4183173;28;20049;-83
2023/01/23 01:42:27;;;;;;;7.50;3.25;;;3.20;99.90;;;;;;4182337;28;20068;-83
2023/01/23 01:44:59;;;;;;;6.75;3.20;;;3.40;99.90;;;;;;4181363;28;20052;-83
2023/01/23 01:47:00;;;;;;;13.00;2.80;;;3.70;99.90;;;;;;4182149;28;20408;-83
2023/01/23 01:49:22;;;;;;;6.20;3.00;;;3.40;99.90;;;;;;4181957;28;20041;-83
2023/01/23 01:51:27;;;;;;;5.85;2.58;;;3.00;99.90;;;;;;4181865;28;20102;-83
2023/01/23 01:53:31;;;;;;;8.88;3.03;;;2.80;99.90;;;;;;4182173;28;20049;-83
2023/01/23 01:55:32;;;;;;;7.68;3.13;;;3.00;99.90;;;;;;4181673;28;20595;-82
2023/01/23 01:57:37;;;;;;;7.25;3.20;;;3.00;99.90;;;;;;4181001;28;20053;-83
2023/01/23 02:00:02;;;;;;;5.85;2.60;;;3.80;99.90;;;;;;4182329;28;20092;-83
2023/01/23 02:02:15;;;;;;;12.27;3.30;;;2.80;99.90;;;;;;4181228;28;20139;-83
2023/01/23 02:04:16;;;;;;;7.85;2.75;;;2.80;99.90;;;;;;4182027;28;20419;-83
2023/01/23 02:06:19;;;;;;;6.22;2.63;;;2.80;99.90;;;;;;4181503;28;20098;-83
2023/01/23 02:08:52;;;;;;;7.10;2.60;;;2.80;99.90;;;;;;4181797;28;20044;-83
2023/01/23 02:10:54;;;;;;;6.97;3.00;;;2.80;99.90;;;;;;4179735;28;20111;-83
2023/01/23 02:13:19;;;;;;;8.75;3.55;;;3.70;99.90;;;;;;4179824;28;20053;-83
2023/01/23 02:15:21;;;;;;;7.25;2.47;;;2.80;99.90;;;;;;4182144;28;20057;-82
2023/01/23 02:17:22;;;;;;;7.68;3.33;;;2.80;99.90;;;;;;4180037;28;20049;-82
2023/01/23 02:20:01;;;;;;;7.10;3.17;;;3.30;99.90;;;;;;4181517;28;20045;-82
2023/01/23 02:22:28;;;;;;;4.70;2.85;;;2.80;99.90;;;;;;4181809;28;20382;-82
2023/01/23 02:24:38;;;;;;;7.85;2.90;;;2.70;99.90;;;;;;4182078;28;20045;-82
2023/01/23 02:26:43;;;;;;;8.27;3.72;;;2.70;99.90;;;;;;4180554;28;20129;-82
2023/01/23 02:28:54;;;;;;;5.40;2.80;;;3.00;99.90;;;;;;4165862;28;20058;-82
2023/01/23 02:30:54;;;;;;;6.78;3.03;;;3.10;99.90;;;;;;4185064;28;20045;-82
2023/01/23 02:33:18;;;;;;;7.90;3.10;;;2.70;99.90;;;;;;4181383;28;20138;-82
2023/01/23 02:35:26;;;;;;;12.25;4.00;;;2.70;99.90;;;;;;4168632;28;20042;-82
2023/01/23 02:37:32;;;;;;;9.30;3.90;;;2.90;99.90;;;;;;4168884;28;20045;-82
2023/01/23 02:39:33;;;;;;;8.88;3.65;;;2.80;99.90;;;;;;4169338;28;20545;-82
2023/01/23 02:41:37;;;;;;;7.82;2.70;;;2.70;99.90;;;;;;4168510;28;20080;-82
2023/01/23 02:43:39;;;;;;;9.05;3.33;;;2.60;99.90;;;;;;4169818;28;20049;-83
2023/01/23 02:45:40;;;;;;;6.30;2.88;;;2.70;99.90;;;;;;4151547;28;20081;-82
2023/01/23 02:47:41;;;;;;;7.57;2.95;;;3.30;99.90;;;;;;4167836;28;20060;-82
2023/01/23 02:49:41;;;;;;;3.67;2.90;;;2.70;99.90;;;;;;4167308;28;20041;-82
2023/01/23 02:51:43;;;;;;;7.50;3.00;;;3.80;99.90;;;;;;4177654;28;20037;-81
2023/01/23 02:53:44;;;;;;;6.68;2.80;;;2.70;99.90;;;;;;4167654;28;20049;-82
2023/01/23 02:55:44;;;;;;;8.60;3.20;;;2.70;99.90;;;;;;4184985;28;20151;-81
2023/01/23 02:57:47;;;;;;;6.43;3.10;;;2.70;99.90;;;;;;4184783;28;20055;-81
2023/01/23 03:02:08;;;;;;;7.75;3.17;;;2.70;99.90;;;;;;4184308;28;20049;-82
2023/01/23 03:04:10;;;;;;;6.75;2.85;;;3.10;99.90;;;;;;4167525;28;20467;-82
2023/01/23 03:06:11;;;;;;;8.10;2.72;;;2.70;99.90;;;;;;4184699;28;20045;-82
2023/01/23 03:08:12;;;;;;;5.93;2.70;;;2.70;99.90;;;;;;4184190;28;20595;-82
2023/01/23 03:10:12;;;;;;;5.03;2.40;;;3.60;99.90;;;;;;4184566;28;20508;-82
2023/01/23 03:12:15;;;;;;;7.50;3.40;;;2.70;99.90;;;;;;4182990;28;20103;-82
2023/01/23 03:14:22;;;;;;;6.72;2.83;;;2.90;99.90;;;;;;4183182;28;20080;-82
2023/01/23 03:16:23;;;;;;;13.45;3.70;;;2.90;99.90;;;;;;4166790;28;20045;-82
2023/01/23 03:18:29;;;;;;;8.50;2.92;;;2.80;99.90;;;;;;4183963;28;20071;-82
2023/01/23 03:20:38;;;;;;;6.07;3.00;;;2.80;99.90;;;;;;4166276;28;20056;-81
2023/01/23 03:22:39;;;;;;;5.93;2.30;;;3.50;99.90;;;;;;4183151;28;20078;-82
2023/01/23 03:24:41;;;;;;;5.97;2.97;;;2.70;99.90;;;;;;4183041;28;20410;-82
2023/01/23 03:26:43;;;;;;;8.60;3.50;;;3.50;99.90;;;;;;4166635;28;20506;-81
2023/01/23 03:31:05;;;;;;;8.32;2.60;;;2.70;99.90;;;;;;4182984;28;20060;-82
2023/01/23 03:33:07;;;;;;;5.03;2.60;;;2.70;99.90;;;;;;4183616;28;20574;-82
2023/01/23 03:35:09;;;;;;;7.80;2.85;;;3.60;99.90;;;;;;4183934;28;20386;-82
2023/01/23 03:37:11;;;;;;;7.50;3.17;;;3.50;99.90;;;;;;4183625;28;20049;-82
2023/01/23 03:41:31;;;;;;;6.78;2.70;;;2.80;99.90;;;;;;4182261;28;20049;-82
2023/01/23 03:43:32;;;;;;;7.00;2.50;;;2.80;99.90;;;;;;4181908;28;20344;-82
2023/01/23 03:45:33;;;;;;;9.35;2.80;;;3.60;99.90;;;;;;4169732;28;20053;-85
2023/01/23 03:47:34;;;;;;;7.18;2.58;;;2.80;99.90;;;;;;4181389;28;20496;-81
2023/01/23 03:49:35;;;;;;;6.25;2.78;;;2.80;99.90;;;;;;4182295;28;20055;-81
2023/01/23 03:51:37;;;;;;;6.60;3.05;;;2.80;99.90;;;;;;4182911;28;20115;-82
2023/01/23 03:53:38;;;;;;;4.68;2.63;;;2.70;99.90;;;;;;4183768;28;20099;-82
2023/01/23 03:55:39;;;;;;;8.93;2.85;;;2.80;99.90;;;;;;4183486;28;20053;-81
2023/01/23 03:57:39;;;;;;;6.45;2.90;;;2.70;99.90;;;;;;4183795;28;20048;-81
2023/01/23 03:59:40;;;;;;;6.43;2.92;;;2.80;99.90;;;;;;4183193;28;20037;-82
2023/01/23 04:01:41;;;;;;;10.60;2.80;;;2.70;99.90;;;;;;4178141;28;20045;-82
2023/01/23 04:03:42;;;;;;;6.28;2.67;;;2.80;99.90;;;;;;4171550;28;20079;-81
2023/01/23 04:05:43;;;;;;;6.68;2.88;;;2.70;99.90;;;;;;4183527;28;20047;-81
2023/01/23 04:07:44;;;;;;;6.47;3.22;;;2.70;99.90;;;;;;4161014;28;20041;-82
2023/01/23 04:09:45;;;;;;;4.75;2.75;;;2.70;99.90;;;;;;4165129;28;20640;-82
2023/01/23 04:11:46;;;;;;;7.75;3.03;;;2.80;99.90;;;;;;4166244;28;20521;-82
2023/01/23 04:13:47;;;;;;;12.68;3.10;;;3.30;99.90;;;;;;4177048;28;20401;-82
2023/01/23 04:15:48;;;;;;;7.30;2.90;;;2.70;99.90;;;;;;4169257;28;20084;-82
2023/01/23 04:17:48;;;;;;;7.93;3.25;;;2.80;99.90;;;;;;4148672;28;20510;-82
2023/01/23 04:19:49;;;;;;;7.82;3.05;;;2.70;99.90;;;;;;4170494;28;20040;-82
2023/01/23 04:21:51;;;;;;;8.55;2.75;;;3.20;99.90;;;;;;4182668;28;20045;-82
2023/01/23 04:23:56;;;;;;;10.00;3.08;;;2.70;99.90;;;;;;4182693;28;20040;-82
2023/01/23 04:25:57;;;;;;;6.05;2.80;;;2.70;99.90;;;;;;4173306;28;20099;-82
2023/01/23 04:27:58;;;;;;;6.15;3.13;;;3.50;99.90;;;;;;4148393;28;20129;-82
2023/01/23 04:29:59;;;;;;;7.63;3.33;;;2.60;99.90;;;;;;4148631;28;20057;-82
2023/01/23 04:32:00;;;;;;;9.52;2.85;;;2.70;99.90;;;;;;4165030;28;20029;-82
2023/01/23 04:34:01;;;;;;;12.38;4.10;;;2.70;99.90;;;;;;4165111;28;20049;-82
2023/01/23 04:36:05;;;;;;;8.23;3.97;;;2.70;99.90;;;;;;4164731;28;20425;-82
2023/01/23 04:38:06;;;;;;;10.18;3.50;;;2.80;99.90;;;;;;4162419;28;20410;-82
2023/01/23 04:40:07;;;;;;;6.55;3.28;;;2.70;99.90;;;;;;4180969;28;20053;-82
2023/01/23 04:42:09;;;;;;;8.93;3.00;;;2.70;99.90;;;;;;4182607;28;20045;-82
2023/01/23 04:44:21;;;;;;;8.52;3.42;;;3.70;99.90;;;;;;4167614;28;20048;-82
2023/01/23 04:46:22;;;;;;;5.57;2.92;;;3.30;99.90;;;;;;4182971;28;20532;-82
2023/01/23 04:48:24;;;;;;;6.28;3.05;;;2.70;99.90;;;;;;4181406;28;20045;-82
2023/01/23 04:50:26;;;;;;;11.00;3.20;;;2.70;99.90;;;;;;4181337;28;20084;-82
2023/01/23 04:52:28;;;;;;;5.95;3.20;;;3.10;99.90;;;;;;4163681;28;20041;-82
2023/01/23 04:54:30;;;;;;;11.07;4.03;;;3.60;99.90;;;;;;4164723;28;20041;-82
2023/01/23 04:56:30;;;;;;;8.18;3.67;;;2.60;99.90;;;;;;4164386;28;20053;-82
2023/01/23 04:58:32;;;;;;;10.38;3.78;;;3.00;99.90;;;;;;4181327;28;20114;-82
2023/01/23 05:00:35;;;;;;;9.15;3.80;;;3.30;99.90;;;;;;4182509;28;20079;-82
2023/01/23 05:02:36;;;;;;;8.82;3.38;;;2.70;99.90;;;;;;4181753;28;20041;-82
2023/01/23 05:04:37;;;;;;;7.72;3.70;;;2.70;99.90;;;;;;4180761;28;20055;-82
2023/01/23 05:06:39;;;;;;;9.18;4.03;;;2.70;99.90;;;;;;4180092;28;20508;-82
2023/01/23 05:08:41;;;;;;;11.48;3.85;;;2.70;99.90;;;;;;4182259;28;20084;-82
2023/01/23 05:10:44;;;;;;;7.97;3.85;;;3.00;99.90;;;;;;4180581;28;20053;-82
2023/01/23 05:12:46;;;;;;;8.35;4.50;;;3.00;99.90;;;;;;4182421;28;20766;-82
2023/01/23 05:14:48;;;;;;;9.27;3.90;;;2.70;99.90;;;;;;4164247;28;20056;-82
2023/01/23 05:16:48;;;;;;;7.40;3.28;;;3.00;99.90;;;;;;4180163;28;20512;-82
2023/01/23 05:18:49;;;;;;;7.40;3.50;;;2.70;99.90;;;;;;4181864;28;20037;-82
2023/01/23 05:20:50;;;;;;;8.73;3.88;;;3.20;99.90;;;;;;4180648;28;20122;-82
2023/01/23 05:22:53;;;;;;;8.60;3.15;;;2.90;99.90;;;;;;4181972;28;20450;-82
2023/01/23 05:24:55;;;;;;;9.80;4.50;;;2.90;99.90;;;;;;4172095;28;20397;-82
2023/01/23 05:26:58;;;;;;;7.25;3.38;;;3.20;99.90;;;;;;4181448;28;20501;-82
2023/01/23 05:28:58;;;;;;;7.20;3.47;;;3.10;99.90;;;;;;4181703;28;20049;-82
2023/01/23 05:30:59;;;;;;;6.85;3.50;;;2.60;99.90;;;;;;4180708;28;20470;-82
2023/01/23 05:33:00;;;;;;;11.27;4.07;;;3.30;99.90;;;;;;4181824;28;20085;-82
2023/01/23 05:35:02;;;;;;;10.07;3.53;;;2.70;99.90;;;;;;4180988;28;20049;-82
2023/01/23 05:37:03;;;;;;;10.15;3.70;;;2.60;99.90;;;;;;4181780;28;20045;-81
2023/01/23 05:39:05;;;;;;;6.55;3.58;;;2.60;99.90;;;;;;4181520;28;20067;-81
2023/01/23 05:41:06;;;;;;;8.80;3.60;;;3.00;99.90;;;;;;4164106;28;20045;-81
2023/01/23 05:43:06;;;;;;;8.55;3.50;;;2.60;99.90;;;;;;4181146;28;20045;-81
2023/01/23 05:45:07;;;;;;;10.40;3.58;;;3.50;99.90;;;;;;4163558;28;20057;-81
2023/01/23 05:47:08;;;;;;;9.02;3.90;;;2.70;99.90;;;;;;4163556;28;20084;-81
2023/01/23 05:49:10;;;;;;;12.32;4.30;;;3.00;99.90;;;;;;4181656;28;20045;-82
2023/01/23 05:51:12;;;;;;;9.35;3.45;;;2.70;99.90;;;;;;4181376;28;20414;-82
2023/01/23 05:53:14;;;;;;;6.25;3.40;;;2.70;99.90;;;;;;4181010;28;20079;-81
2023/01/23 05:55:15;;;;;;;12.88;4.20;;;2.60;99.90;;;;;;4181372;28;20056;-81
2023/01/23 05:57:16;;;;;;;11.27;4.18;;;2.70;99.90;;;;;;4180076;28;20053;-82
2023/01/23 05:59:18;;;;;;;10.30;4.30;;;2.70;99.90;;;;;;4183488;28;20098;-82
2023/01/23 06:01:20;;;;;;;8.25;3.78;;;2.70;99.90;;;;;;4163737;28;20091;-81
2023/01/23 06:03:20;;;;;;;7.32;3.95;;;2.70;99.90;;;;;;4164903;28;20548;-81
2023/01/23 06:05:22;;;;;;;11.65;4.68;;;2.80;99.90;;;;;;4166512;28;20045;-81
2023/01/23 06:07:23;;;;;;;11.77;4.68;;;3.30;99.90;;;;;;4184041;28;20048;-81
2023/01/23 06:09:24;;;;;;;9.23;3.83;;;2.70;99.90;;;;;;4184530;28;20049;-82
2023/01/23 06:11:25;;;;;;;9.00;3.63;;;3.80;99.90;;;;;;4166633;28;20132;-81
2023/01/23 06:13:27;;;;;;;9.82;4.60;;;3.40;99.90;;;;;;4184486;28;20121;-81
2023/01/23 06:15:29;;;;;;;11.05;4.22;;;2.80;99.90;;;;;;4184123;28;20081;-81
2023/01/23 06:17:29;;;;;;;7.35;3.67;;;3.10;99.90;;;;;;4161993;28;20049;-81
2023/01/23 06:19:30;;;;;;;10.30;3.85;;;3.50;99.90;;;;;;4182536;28;20058;-81
2023/01/23 06:21:32;;;;;;;10.70;4.55;;;2.70;99.90;;;;;;4183296;28;20501;-81
2023/01/23 06:23:33;;;;;;;8.52;4.15;;;2.70;99.90;;;;;;4184506;28;20049;-81
2023/01/23 06:25:36;;;;;;;8.57;3.50;;;2.70;99.90;;;;;;4166766;28;20052;-81
2023/01/23 06:27:36;;;;;;;7.88;4.22;;;2.70;99.90;;;;;;4183901;28;20045;-81
2023/01/23 06:29:37;;;;;;;10.65;5.10;;;3.00;99.90;;;;;;4184651;28;20094;-81
2023/01/23 06:31:38;;;;;;;8.23;4.00;;;3.30;99.90;;;;;;4182609;28;20049;-81
2023/01/23 06:33:38;;;;;;;7.93;4.18;;;2.70;99.90;;;;;;4184675;28;20045;-81
2023/01/23 06:35:40;;;;;;;9.25;4.60;;;2.70;99.90;;;;;;4183256;28;20052;-81
2023/01/23 06:37:42;;;;;;;9.43;4.15;;;2.70;99.90;;;;;;4183234;28;20107;-81
2023/01/23 06:39:43;;;;;;;8.23;4.45;;;3.50;99.90;;;;;;4184494;28;20047;-81
2023/01/23 06:41:45;;;;;;;9.60;4.50;;;2.70;99.90;;;;;;4184490;28;20099;-81
2023/01/23 06:43:48;;;;;;;9.68;3.90;;;2.70;99.90;;;;;;4184683;28;20048;-81
2023/01/23 06:45:49;;;;;;;8.07;4.43;;;3.10;99.90;;;;;;4185050;28;20434;-81
2023/01/23 06:47:51;;;;;;;19.38;4.97;;;3.10;99.90;;;;;;4183558;28;20059;-81
2023/01/23 06:49:52;;;;;;;12.20;5.75;;;2.70;99.90;;;;;;4183413;28;20053;-81
2023/01/23 06:51:52;;;;;;;9.55;4.65;;;3.50;99.90;;;;;;4183870;28;20523;-81
2023/01/23 06:53:55;;;;;;;9.45;5.40;;;3.70;99.90;;;;;;4184410;28;20044;-81
2023/01/23 06:56:00;;;;;;;8.00;4.40;;;3.40;99.90;;;;;;4183549;28;20425;-80
2023/01/23 06:58:01;;;;;;;10.23;4.60;;;2.70;99.90;;;;;;4182737;28;20088;-81
2023/01/23 07:00:03;;;;;;;7.88;4.18;;;2.70;99.90;;;;;;4165969;28;20044;-82
2023/01/23 07:02:03;;;;;;;9.05;3.83;;;2.70;99.90;;;;;;4173265;28;20052;-81
2023/01/23 07:04:05;;;;;;;11.63;4.95;;;2.70;99.90;;;;;;4178891;28;20509;-81
2023/01/23 07:06:08;;;;;;;12.68;5.00;;;2.70;99.90;;;;;;4184056;28;20053;-81
2023/01/23 07:08:09;;;;;;;12.30;4.75;;;2.70;99.90;;;;;;4183304;28;20135;-82
2023/01/23 07:10:10;;;;;;;24.50;5.43;;;2.70;99.90;;;;;;4183340;28;20044;-81
2023/01/23 07:12:12;;;;;;;11.95;5.05;;;2.70;99.90;;;;;;4181244;28;20048;-82
2023/01/23 07:14:13;;;;;;;18.67;6.35;;;2.70;99.90;;;;;;4183073;28;20045;-82
2023/01/23 07:16:15;;;;;;;14.27;4.97;;;2.80;99.90;;;;;;4182482;28;20069;-82
2023/01/23 07:18:17;;;;;;;11.30;4.93;;;2.60;99.90;;;;;;4183460;28;20045;-81
2023/01/23 07:20:18;;;;;;;11.20;5.10;;;2.70;99.90;;;;;;4184277;28;20052;-81
2023/01/23 07:22:20;;;;;;;9.57;4.72;;;2.70;99.90;;;;;;4183980;28;20524;-82
2023/01/23 07:24:22;;;;;;;10.73;4.85;;;3.80;99.90;;;;;;4185232;28;20497;-81
2023/01/23 07:26:24;;;;;;;11.65;5.00;;;2.90;99.90;;;;;;4185022;28;20072;-81
2023/01/23 07:28:25;;;;;;;9.85;5.13;;;2.70;99.90;;;;;;4179622;28;20041;-82
2023/01/23 07:30:26;;;;;;;15.90;5.50;;;2.60;99.90;;;;;;4182372;28;20044;-81
2023/01/23 07:32:27;;;;;;;14.57;5.75;;;2.60;99.90;;;;;;4183187;28;20052;-81
2023/01/23 07:34:29;;;;;;;10.23;4.68;;;2.70;99.90;;;;;;4182861;28;20131;-81
2023/01/23 07:36:29;;;;;;;8.75;4.35;;;2.60;99.90;;;;;;4183942;28;20125;-81
2023/01/23 07:38:30;;;;;;;12.57;4.90;;;2.60;99.90;;;;;;4182929;28;20061;-81
2023/01/23 07:40:31;;;;;;;10.80;5.20;;;2.80;99.90;;;;;;4182162;28;20184;-82
2023/01/23 07:42:32;;;;;;;12.20;5.05;;;3.30;99.90;;;;;;4176778;28;20038;-82
2023/01/23 07:44:32;;;;;;;15.13;5.20;;;3.00;99.90;;;;;;4182578;28;20486;-82
2023/01/23 07:46:34;;;;;;;14.07;4.35;;;2.60;99.90;;;;;;4182590;28;20068;-81
2023/01/23 07:48:36;;;;;;;8.52;4.10;;;3.40;99.90;;;;;;4175203;28;20155;-82
2023/01/23 07:50:38;;;;;;;13.38;4.32;;;3.20;99.90;;;;;;4166369;28;20053;-82
2023/01/23 07:52:39;;;;;;;8.95;4.07;;;2.60;99.90;;;;;;4182320;28;20504;-82
2023/01/23 07:54:40;;;;;;;9.30;4.07;;;2.70;99.90;;;;;;4182224;28;20190;-82
2023/01/23 07:56:42;;;;;;;11.95;4.65;;;2.70;99.90;;;;;;4183821;28;20116;-82
2023/01/23 07:58:42;;;;;;;11.32;4.90;;;3.60;99.90;;;;;;4183242;28;20045;-82
2023/01/23 08:00:44;;;;;;;7.85;3.63;;;2.90;99.90;;;;;;4173978;28;20099;-82
2023/01/23 08:02:44;;;;;;;9.02;4.40;;;2.70;99.90;;;;;;4182969;28;20060;-82
2023/01/23 08:04:45;;;;;;;7.75;4.63;;;2.60;99.90;;;;;;4183810;28;20571;-82
2023/01/23 08:06:46;;;;;;;10.45;3.85;;;2.60;99.90;;;;;;4179408;28;20041;-82
2023/01/23 08:08:47;;;;;;;10.70;4.80;;;2.60;99.90;;;;;;4180279;28;20052;-81
2023/01/23 08:10:48;;;;;;;10.27;4.68;;;2.60;99.90;;;;;;4183458;28;20075;-81
2023/01/23 08:12:49;;;;;;;12.15;4.25;;;2.60;99.90;;;;;;4183664;28;20497;-81
2023/01/23 08:14:51;;;;;;;10.50;4.97;;;2.60;99.90;;;;;;4166302;28;20057;-81
2023/01/23 08:16:52;;;;;;;9.02;4.40;;;3.70;99.90;;;;;;4182554;28;20056;-81
2023/01/23 08:18:53;;;;;;;6.85;4.05;;;3.50;99.90;;;;;;4184151;28;20049;-81
2023/01/23 08:20:55;;;;;;;8.98;3.92;;;2.70;99.90;;;;;;4185860;28;20113;-81
2023/01/23 08:22:57;;;;;;;8.18;4.40;;;4.20;99.90;;;;;;4196332;28;20045;-81
2023/01/23 08:24:58;;;;;;;8.73;3.42;;;2.90;99.90;;;;;;4192342;28;20130;-82
2023/01/23 08:26:59;;;;;;;8.90;3.50;;;2.90;99.90;;;;;;4198387;28;20041;-81
2023/01/23 08:28:59;;;;;;;12.73;4.80;;;2.70;99.90;;;;;;4183251;28;20041;-82
2023/01/23 08:31:04;;;;;;;6.45;3.63;;;3.80;99.90;;;;;;4181765;28;20052;-82
2023/01/23 08:33:04;;;;;;;6.70;3.47;;;2.70;99.90;;;;;;4183718;28;20170;-81
2023/01/23 08:35:07;;;;;;;8.93;3.95;;;3.70;99.90;;;;;;4177374;28;20444;-82
2023/01/23 08:37:07;;;;;;;10.02;4.25;;;2.80;99.90;;;;;;4181546;28;20045;-82
2023/01/23 08:39:08;;;;;;;8.43;4.00;;;2.80;99.90;;;;;;4181837;28;20606;-82
2023/01/23 08:41:10;;;;;;;7.60;3.58;;;3.50;99.90;;;;;;4171559;28;20091;-82
2023/01/23 08:43:12;;;;;;;7.63;3.53;;;2.80;99.90;;;;;;4181966;28;20571;-80
2023/01/23 08:45:15;;;;;;;8.90;3.67;;;2.90;99.90;;;;;;4183157;28;20056;-82
2023/01/23 08:47:17;;;;;;;6.03;3.65;;;2.80;99.90;;;;;;4181823;28;20037;-82
2023/01/23 08:49:19;;;;;;;6.57;3.10;;;3.70;99.90;;;;;;4182068;28;20081;-83
2023/01/23 08:51:20;;;;;;;6.65;3.72;;;3.10;99.90;;;;;;4178934;28;20041;-82
2023/01/23 08:53:21;;;;;;;8.07;3.80;;;4.00;99.90;;;;;;4181096;28;20083;-82
2023/01/23 08:55:22;;;;;;;6.15;3.45;;;2.90;99.90;;;;;;4181089;28;20076;-82
2023/01/23 08:57:23;;;;;;;6.72;3.33;;;2.90;99.90;;;;;;4182541;28;20037;-82
2023/01/23 08:59:24;;;;;;;5.60;2.83;;;2.90;99.90;;;;;;4181163;28;20091;-82
2023/01/23 09:01:26;;;;;;;7.90;3.13;;;3.00;99.90;;;;;;4180694;28;20549;-82
2023/01/23 09:03:27;;;;;;;11.18;3.20;;;3.50;99.90;;;;;;4181162;28;20072;-82
2023/01/23 09:05:28;;;;;;;7.47;3.00;;;3.60;99.90;;;;;;4180745;28;20083;-82
2023/01/23 09:07:29;;;;;;;6.05;3.38;;;3.00;99.90;;;;;;4165288;28;20466;-82
2023/01/23 09:09:30;;;;;;;7.70;3.17;;;3.10;99.90;;;;;;4181456;28;20049;-82
2023/01/23 09:11:32;;;;;;;7.18;3.03;;;3.00;99.90;;;;;;4176560;28;20048;-82
2023/01/23 09:13:35;;;;;;;4.82;2.63;;;3.10;99.90;;;;;;4180857;28;20552;-82
2023/01/23 09:15:39;;;;;;;4.65;2.55;;;3.10;99.90;;;;;;4180772;28;20412;-82
2023/01/23 09:17:39;;;;;;;4.85;2.85;;;1.70;99.90;;;;;;4181743;28;20045;-83
2023/01/23 09:19:41;;;;;;;4.60;2.53;;;3.30;99.90;;;;;;4183003;28;20116;-82
2023/01/23 09:21:42;;;;;;;5.18;2.50;;;3.10;99.90;;;;;;4181521;28;20053;-82
2023/01/23 09:23:44;;;;;;;4.03;2.58;;;3.20;99.90;;;;;;4182923;28;20075;-82
2023/01/23 09:25:45;;;;;;;3.67;2.40;;;3.10;99.90;;;;;;4183093;28;20072;-82
2023/01/23 09:27:45;;;;;;;5.03;2.63;;;3.10;99.90;;;;;;4182658;28;20049;-83
2023/01/23 09:29:46;;;;;;;5.72;2.72;;;3.10;99.90;;;;;;4183047;28;20107;-82
2023/01/23 09:31:47;;;;;;;5.13;2.55;;;3.20;99.90;;;;;;4183141;28;20049;-82
2023/01/23 09:33:48;;;;;;;2.75;2.20;;;3.40;99.90;;;;;;4181803;28;20041;-82
2023/01/23 09:35:53;;;;;;;4.72;2.85;;;3.20;99.90;;;;;;4160725;28;20420;-82
2023/01/23 09:37:59;;;;;;;5.32;2.60;;;4.00;99.90;;;;;;4167417;28;20053;-83
2023/01/23 09:40:00;;;;;;;4.72;2.63;;;3.20;99.90;;;;;;4181745;28;20048;-82
2023/01/23 09:42:07;;;;;;;6.53;3.25;;;3.20;99.90;;;;;;4186955;28;20073;-81
2023/01/23 09:44:22;;;;;;;7.15;2.75;;;3.20;99.90;;;;;;4186205;28;20045;-82
2023/01/23 09:46:34;;;;;;;6.88;3.75;;;3.20;99.90;;;;;;4183239;28;20036;-83
2023/01/23 09:49:26;;;;;;;8.18;4.32;;;3.70;99.90;;;;;;4186953;28;20075;-82
2023/01/23 09:51:36;;;;;;;6.60;3.55;;;3.30;99.90;;;;;;4134963;28;20050;-82
2023/01/23 09:53:39;;;;;;;7.90;3.33;;;3.30;99.90;;;;;;4135881;28;20042;-82
2023/01/23 09:55:57;;;;;;;7.55;3.40;;;3.40;99.90;;;;;;4119939;28;20146;-82
2023/01/23 09:58:02;;;;;;;7.53;3.50;;;3.40;99.90;;;;;;4185033;28;20048;-82
2023/01/23 10:00:29;;;;;;;6.75;3.13;;;4.00;99.90;;;;;;4185804;28;20105;-83
2023/01/23 10:02:30;;;;;;;6.35;3.25;;;3.40;99.90;;;;;;4182913;28;20107;-83
2023/01/23 10:04:37;;;;;;;7.32;3.00;;;3.70;99.90;;;;;;4177652;28;20131;-82
2023/01/23 10:06:52;;;;;;;7.78;3.75;;;4.20;99.90;;;;;;4185175;28;20043;-83
2023/01/23 10:09:14;;;;;;;11.75;4.25;;;3.50;99.90;;;;;;4184089;28;20071;-83
2023/01/23 10:11:48;;;;;;;13.35;4.82;;;3.50;99.90;;;;;;4184244;28;20059;-83
2023/01/23 10:13:58;;;;;;;9.90;4.93;;;3.50;99.90;;;;;;4166432;28;20127;-83
2023/01/23 10:16:44;;;;;;;9.98;5.00;;;3.60;99.90;;;;;;4182246;28;20048;-83
2023/01/23 10:19:02;;;;;;;10.15;5.15;;;3.60;99.90;;;;;;4132586;28;20046;-85
2023/01/23 10:21:13;;;;;;;11.18;4.78;;;3.60;99.90;;;;;;4149735;28;20050;-83
2023/01/23 10:23:35;;;;;;;12.00;4.80;;;3.60;99.90;;;;;;4160624;28;20045;-83
2023/01/23 10:25:39;;;;;;;10.90;4.78;;;3.60;99.90;;;;;;4183791;28;20056;-83
2023/01/23 10:27:44;;;;;;;9.65;4.60;;;3.60;99.90;;;;;;4181148;28;20143;-83
2023/01/23 10:29:55;;;;;;;11.77;5.25;;;3.70;99.90;;;;;;4175005;28;20467;-83
2023/01/23 10:32:01;;;;;;;10.88;4.47;;;3.70;99.90;;;;;;4166528;28;20045;-83
2023/01/23 10:34:23;;;;;;;9.60;4.60;;;3.70;99.90;;;;;;4167206;28;20061;-83
2023/01/23 10:36:38;;;;;;;9.43;4.78;;;3.70;99.90;;;;;;4166328;28;20646;-83
2023/01/23 10:38:53;;;;;;;10.40;4.95;;;3.70;99.90;;;;;;4168643;28;20048;-83
2023/01/23 10:41:13;;;;;;;18.67;5.15;;;3.70;99.90;;;;;;4181379;28;20049;-83
2023/01/23 10:43:16;;;;;;;12.68;5.50;;;3.80;99.90;;;;;;4183775;28;20056;-83
2023/01/23 10:45:20;;;;;;;11.18;5.15;;;4.50;99.90;;;;;;4185160;28;20052;-83
2023/01/23 10:47:27;;;;;;;9.27;4.82;;;3.70;99.90;;;;;;4184627;28;20129;-83
2023/01/23 10:49:38;;;;;;;10.20;4.93;;;4.40;99.90;;;;;;4183499;28;20044;-83
2023/01/23 10:51:46;;;;;;;10.38;4.80;;;3.80;99.90;;;;;;4182665;28;20037;-83
2023/01/23 10:54:02;;;;;;;10.38;5.40;;;3.80;99.90;;;;;;4181976;28;20049;-83
2023/01/23 10:56:13;;;;;;;12.43;5.18;;;3.80;99.90;;;;;;4179431;28;20061;-83
2023/01/23 10:58:32;;;;;;;11.32;4.65;;;3.80;99.90;;;;;;4180519;28;20049;-82